createdAt,value
2017-10-13T00:00:06.679Z,0
2017-10-13T00:01:07.290Z,0
2017-10-13T00:02:07.898Z,0
2017-10-13T00:03:08.513Z,0
2017-10-13T00:04:09.281Z,0
2017-10-13T00:05:09.890Z,0
2017-10-13T00:06:10.504Z,0
2017-10-13T00:07:11.118Z,0
2017-10-13T00:08:11.735Z,0
2017-10-13T00:09:12.523Z,0
2017-10-13T00:10:13.133Z,0
2017-10-13T00:11:13.744Z,0
2017-10-13T00:12:14.383Z,0
2017-10-13T00:13:14.998Z,0
2017-10-13T00:14:15.756Z,0
2017-10-13T00:15:16.379Z,0
2017-10-13T00:16:16.976Z,0
2017-10-13T00:17:17.587Z,0
2017-10-13T00:18:18.198Z,0
2017-10-13T00:19:18.957Z,0
2017-10-13T00:20:19.573Z,0
2017-10-13T00:21:20.180Z,0
2017-10-13T00:22:20.791Z,0
2017-10-13T00:23:21.402Z,0
2017-10-13T00:24:22.190Z,0
2017-10-13T00:25:22.800Z,0
2017-10-13T00:26:23.416Z,0
2017-10-13T00:27:24.026Z,0
2017-10-13T00:28:24.635Z,0
2017-10-13T00:29:25.394Z,0
2017-10-13T00:30:26.004Z,0
2017-10-13T00:31:26.614Z,0
2017-10-13T00:32:27.227Z,0
2017-10-13T00:33:27.838Z,0
2017-10-13T00:34:28.598Z,0
2017-10-13T00:35:29.209Z,0
2017-10-13T00:36:29.819Z,0
2017-10-13T00:37:30.428Z,0
2017-10-13T00:38:31.040Z,0
2017-10-13T00:39:31.802Z,0
2017-10-13T00:40:32.411Z,0
2017-10-13T00:41:33.022Z,0
2017-10-13T00:42:33.630Z,0
2017-10-13T00:43:34.242Z,0
2017-10-13T00:44:35.003Z,0
2017-10-13T00:45:35.643Z,0
2017-10-13T00:46:36.255Z,0
2017-10-13T00:47:36.895Z,0
2017-10-13T00:48:37.504Z,0
2017-10-13T00:49:38.306Z,0
2017-10-13T00:50:38.909Z,0
2017-10-13T00:51:39.524Z,0
2017-10-13T00:52:40.138Z,0
2017-10-13T00:53:40.746Z,0
2017-10-13T00:54:41.508Z,0
2017-10-13T00:55:42.117Z,0
2017-10-13T00:56:42.728Z,0
2017-10-13T00:57:43.341Z,0
2017-10-13T00:58:43.952Z,0
2017-10-13T00:59:44.718Z,0
2017-10-13T01:00:45.332Z,0
2017-10-13T01:01:45.946Z,0
2017-10-13T01:02:46.553Z,0
2017-10-13T01:03:47.163Z,0
2017-10-13T01:04:47.921Z,0
2017-10-13T01:05:48.532Z,0
2017-10-13T01:06:49.145Z,0
2017-10-13T01:07:49.756Z,0
2017-10-13T01:08:50.366Z,0
2017-10-13T01:09:51.124Z,0
2017-10-13T01:10:51.734Z,0
2017-10-13T01:11:52.345Z,0
2017-10-13T01:12:52.957Z,0
2017-10-13T01:13:53.599Z,0
2017-10-13T01:14:54.360Z,0
2017-10-13T01:15:54.975Z,0
2017-10-13T01:16:55.583Z,0
2017-10-13T01:17:56.193Z,0
2017-10-13T01:18:56.837Z,0
2017-10-13T01:19:57.621Z,0
2017-10-13T01:20:58.233Z,0
2017-10-13T01:21:58.842Z,0
2017-10-13T01:22:59.454Z,0
2017-10-13T01:24:00.063Z,0
2017-10-13T01:25:00.823Z,0
2017-10-13T01:26:01.434Z,0
2017-10-13T01:27:02.051Z,0
2017-10-13T01:28:02.658Z,0
2017-10-13T01:29:03.268Z,0
2017-10-13T01:30:04.027Z,0
2017-10-13T01:31:04.638Z,0
2017-10-13T01:32:05.248Z,0
2017-10-13T01:33:05.867Z,0
2017-10-13T01:34:06.472Z,0
2017-10-13T01:35:07.233Z,0
2017-10-13T01:36:07.879Z,0
2017-10-13T01:37:08.482Z,0
2017-10-13T01:38:09.092Z,0
2017-10-13T01:39:09.703Z,0
2017-10-13T01:40:10.464Z,0
2017-10-13T01:41:11.076Z,0
2017-10-13T01:42:11.688Z,0
2017-10-13T01:43:12.295Z,0
2017-10-13T01:44:12.905Z,0
2017-10-13T01:45:13.665Z,0
2017-10-13T01:46:14.276Z,0
2017-10-13T01:47:14.893Z,0
2017-10-13T01:48:15.498Z,0
2017-10-13T01:49:16.107Z,0
2017-10-13T01:50:16.867Z,0
2017-10-13T01:51:17.479Z,0
2017-10-13T01:52:18.090Z,0
2017-10-13T01:53:18.702Z,0
2017-10-13T01:54:19.310Z,0
2017-10-13T01:55:20.071Z,0
2017-10-13T01:56:20.713Z,0
2017-10-13T01:57:21.324Z,0
2017-10-13T01:58:21.933Z,0
2017-10-13T01:59:22.542Z,0
2017-10-13T02:00:23.308Z,0
2017-10-13T02:01:23.948Z,0
2017-10-13T02:02:24.560Z,0
2017-10-13T02:03:25.172Z,0
2017-10-13T02:04:25.782Z,0
2017-10-13T02:05:26.542Z,0
2017-10-13T02:06:27.187Z,0
2017-10-13T02:07:27.793Z,0
2017-10-13T02:08:28.402Z,0
2017-10-13T02:09:29.010Z,0
2017-10-13T02:10:29.771Z,0
2017-10-13T02:11:30.385Z,0
2017-10-13T02:12:31.000Z,0
2017-10-13T02:13:31.613Z,0
2017-10-13T02:14:32.224Z,0
2017-10-13T02:15:32.983Z,0
2017-10-13T02:16:33.604Z,0
2017-10-13T02:17:34.207Z,0
2017-10-13T02:18:34.853Z,0
2017-10-13T02:19:35.455Z,0
2017-10-13T02:20:36.213Z,0
2017-10-13T02:21:36.832Z,0
2017-10-13T02:22:37.438Z,0
2017-10-13T02:23:38.055Z,0
2017-10-13T02:24:38.660Z,0
2017-10-13T02:25:39.420Z,0
2017-10-13T02:26:40.030Z,0
2017-10-13T02:27:40.649Z,0
2017-10-13T02:28:41.262Z,0
2017-10-13T02:29:41.864Z,0
2017-10-13T02:30:42.624Z,0
2017-10-13T02:31:43.233Z,0
2017-10-13T02:32:43.843Z,0
2017-10-13T02:33:44.454Z,0
2017-10-13T02:34:45.063Z,0
2017-10-13T02:35:45.823Z,0
2017-10-13T02:36:46.434Z,0
2017-10-13T02:37:47.043Z,0
2017-10-13T02:38:47.651Z,0
2017-10-13T02:39:48.269Z,0
2017-10-13T02:40:49.028Z,0
2017-10-13T02:41:49.643Z,0
2017-10-13T02:42:50.247Z,0
2017-10-13T02:43:50.861Z,0
2017-10-13T02:44:51.467Z,0
2017-10-13T02:45:52.230Z,0
2017-10-13T02:46:52.837Z,0
2017-10-13T02:47:53.451Z,0
2017-10-13T02:48:54.056Z,0
2017-10-13T02:49:54.671Z,0
2017-10-13T02:50:55.427Z,0
2017-10-13T02:51:56.037Z,0
2017-10-13T02:52:56.649Z,0
2017-10-13T02:53:57.258Z,0
2017-10-13T02:54:57.872Z,0
2017-10-13T02:55:58.635Z,0
2017-10-13T02:56:59.257Z,0
2017-10-13T02:57:59.856Z,0
2017-10-13T02:59:00.469Z,0
2017-10-13T03:00:01.074Z,0
2017-10-13T03:01:01.841Z,0
2017-10-13T03:02:02.447Z,0
2017-10-13T03:03:03.056Z,0
2017-10-13T03:04:03.665Z,0
2017-10-13T03:05:04.317Z,0
2017-10-13T03:06:05.112Z,0
2017-10-13T03:07:05.714Z,0
2017-10-13T03:08:06.323Z,0
2017-10-13T03:09:06.963Z,0
2017-10-13T03:10:07.572Z,0
2017-10-13T03:11:08.366Z,0
2017-10-13T03:12:08.980Z,0
2017-10-13T03:13:09.588Z,0
2017-10-13T03:14:10.228Z,0
2017-10-13T03:15:10.839Z,0
2017-10-13T03:16:11.600Z,0
2017-10-13T03:17:12.209Z,0
2017-10-13T03:18:12.819Z,0
2017-10-13T03:19:13.428Z,0
2017-10-13T03:20:14.037Z,0
2017-10-13T03:21:14.797Z,0
2017-10-13T03:22:15.437Z,0
2017-10-13T03:23:16.051Z,0
2017-10-13T03:24:16.663Z,0
2017-10-13T03:25:17.303Z,0
2017-10-13T03:26:18.092Z,0
2017-10-13T03:27:18.736Z,0
2017-10-13T03:28:19.347Z,0
2017-10-13T03:29:19.959Z,0
2017-10-13T03:30:20.566Z,0
2017-10-13T03:31:21.325Z,0
2017-10-13T03:32:21.936Z,0
2017-10-13T03:33:22.545Z,0
2017-10-13T03:34:23.154Z,0
2017-10-13T03:35:23.763Z,0
2017-10-13T03:36:24.522Z,0
2017-10-13T03:37:25.133Z,0
2017-10-13T03:38:25.743Z,0
2017-10-13T03:39:26.353Z,0
2017-10-13T03:40:26.967Z,0
2017-10-13T03:41:27.726Z,0
2017-10-13T03:42:28.341Z,0
2017-10-13T03:43:28.947Z,0
2017-10-13T03:44:29.557Z,0
2017-10-13T03:45:30.170Z,0
2017-10-13T03:46:30.928Z,0
2017-10-13T03:47:31.538Z,0
2017-10-13T03:48:32.147Z,0
2017-10-13T03:49:32.762Z,0
2017-10-13T03:50:33.400Z,0
2017-10-13T03:51:34.211Z,0
2017-10-13T03:52:34.823Z,0
2017-10-13T03:53:35.431Z,0
2017-10-13T03:54:36.042Z,0
2017-10-13T03:55:36.657Z,0
2017-10-13T03:56:37.463Z,0
2017-10-13T03:57:38.072Z,0
2017-10-13T03:58:38.697Z,0
2017-10-13T03:59:39.294Z,0
2017-10-13T04:00:39.904Z,0
2017-10-13T04:01:40.690Z,0
2017-10-13T04:02:41.299Z,0
2017-10-13T04:03:41.911Z,0
2017-10-13T04:04:42.523Z,0
2017-10-13T04:05:43.133Z,0
2017-10-13T04:06:43.942Z,0
2017-10-13T04:07:44.559Z,0
2017-10-13T04:08:45.169Z,0
2017-10-13T04:09:45.809Z,0
2017-10-13T04:10:46.449Z,0
2017-10-13T04:11:47.259Z,0
2017-10-13T04:12:47.874Z,0
2017-10-13T04:13:48.477Z,0
2017-10-13T04:14:49.092Z,0
2017-10-13T04:15:49.702Z,0
2017-10-13T04:16:50.518Z,0
2017-10-13T04:17:51.132Z,0
2017-10-13T04:18:51.739Z,0
2017-10-13T04:19:52.351Z,0
2017-10-13T04:20:52.961Z,0
2017-10-13T04:21:53.782Z,0
2017-10-13T04:22:54.383Z,0
2017-10-13T04:23:54.991Z,0
2017-10-13T04:24:55.600Z,0
2017-10-13T04:25:56.209Z,0
2017-10-13T04:26:57.070Z,0
2017-10-13T04:27:57.679Z,0
2017-10-13T04:28:58.296Z,0
2017-10-13T04:29:58.901Z,0
2017-10-13T04:30:59.511Z,0
2017-10-13T04:32:00.426Z,0
2017-10-13T04:33:01.034Z,0
2017-10-13T04:34:01.645Z,0
2017-10-13T04:35:02.256Z,0
2017-10-13T04:36:02.871Z,0
2017-10-13T04:37:03.727Z,0
2017-10-13T04:38:04.337Z,0
2017-10-13T04:39:04.946Z,0
2017-10-13T04:40:05.555Z,0
2017-10-13T04:41:06.165Z,0
2017-10-13T04:42:07.024Z,0
2017-10-13T04:43:07.634Z,0
2017-10-13T04:44:08.252Z,0
2017-10-13T04:45:08.857Z,0
2017-10-13T04:46:09.471Z,0
2017-10-13T04:47:10.377Z,0
2017-10-13T04:48:10.998Z,0
2017-10-13T04:49:11.602Z,0
2017-10-13T04:50:12.212Z,0
2017-10-13T04:51:12.853Z,0
2017-10-13T04:52:13.714Z,0
2017-10-13T04:53:14.330Z,0
2017-10-13T04:54:14.937Z,0
2017-10-13T04:55:15.577Z,0
2017-10-13T04:56:16.188Z,0
2017-10-13T04:57:17.003Z,0
2017-10-13T04:58:17.617Z,0
2017-10-13T04:59:18.224Z,0
2017-10-13T05:00:18.834Z,0
2017-10-13T05:01:19.452Z,0
2017-10-13T05:02:20.307Z,0
2017-10-13T05:03:20.918Z,0
2017-10-13T05:04:21.532Z,0
2017-10-13T05:05:22.138Z,0
2017-10-13T05:06:22.752Z,0
2017-10-13T05:07:23.642Z,0
2017-10-13T05:08:24.250Z,0
2017-10-13T05:09:24.887Z,0
2017-10-13T05:10:25.496Z,0
2017-10-13T05:11:26.112Z,0
2017-10-13T05:12:27.018Z,0
2017-10-13T05:13:27.626Z,0
2017-10-13T05:14:28.236Z,0
2017-10-13T05:15:28.876Z,0
2017-10-13T05:16:29.491Z,0
2017-10-13T05:17:30.302Z,0
2017-10-13T05:18:30.909Z,0
2017-10-13T05:19:31.523Z,0
2017-10-13T05:20:32.130Z,0
2017-10-13T05:21:32.769Z,0
2017-10-13T05:22:33.628Z,0
2017-10-13T05:23:34.247Z,0
2017-10-13T05:24:34.881Z,0
2017-10-13T05:25:35.491Z,0
2017-10-13T05:26:36.111Z,0
2017-10-13T05:27:37.020Z,0
2017-10-13T05:28:37.627Z,0
2017-10-13T05:29:38.236Z,0
2017-10-13T05:30:38.847Z,0
2017-10-13T05:31:39.488Z,0
2017-10-13T05:32:40.349Z,4
2017-10-13T05:33:40.987Z,0
2017-10-13T05:34:41.597Z,0
2017-10-13T05:35:42.206Z,4
2017-10-13T05:36:42.815Z,0
2017-10-13T05:37:43.730Z,0
2017-10-13T05:38:44.338Z,4
2017-10-13T05:39:44.950Z,4
2017-10-13T05:40:45.588Z,4
2017-10-13T05:41:46.199Z,4
2017-10-13T05:42:47.065Z,4
2017-10-13T05:43:47.674Z,8
2017-10-13T05:44:48.290Z,4
2017-10-13T05:45:48.905Z,4
2017-10-13T05:46:49.506Z,8
2017-10-13T05:47:50.366Z,8
2017-10-13T05:48:50.976Z,8
2017-10-13T05:49:51.615Z,12
2017-10-13T05:50:52.224Z,8
2017-10-13T05:51:52.843Z,8
2017-10-13T05:52:53.697Z,8
2017-10-13T05:53:54.308Z,12
2017-10-13T05:54:54.918Z,12
2017-10-13T05:55:55.533Z,12
2017-10-13T05:56:56.146Z,16
2017-10-13T05:57:57.006Z,12
2017-10-13T05:58:57.643Z,12
2017-10-13T05:59:58.254Z,16
2017-10-13T06:00:58.865Z,16
2017-10-13T06:01:59.475Z,16
2017-10-13T06:03:00.336Z,16
2017-10-13T06:04:00.948Z,20
2017-10-13T06:05:01.561Z,16
2017-10-13T06:06:02.181Z,16
2017-10-13T06:07:02.785Z,20
2017-10-13T06:08:03.545Z,16
2017-10-13T06:09:04.158Z,20
2017-10-13T06:10:04.768Z,20
2017-10-13T06:11:05.378Z,20
2017-10-13T06:12:05.994Z,20
2017-10-13T06:13:06.903Z,24
2017-10-13T06:14:07.542Z,20
2017-10-13T06:15:08.159Z,24
2017-10-13T06:16:08.770Z,24
2017-10-13T06:17:09.411Z,24
2017-10-13T06:18:10.222Z,24
2017-10-13T06:19:10.832Z,28
2017-10-13T06:20:11.444Z,24
2017-10-13T06:21:12.052Z,24
2017-10-13T06:22:12.664Z,28
2017-10-13T06:23:13.506Z,24
2017-10-13T06:24:14.115Z,28
2017-10-13T06:25:14.732Z,28
2017-10-13T06:26:15.346Z,28
2017-10-13T06:27:15.985Z,28
2017-10-13T06:28:16.932Z,28
2017-10-13T06:29:17.545Z,28
2017-10-13T06:30:18.159Z,32
2017-10-13T06:31:18.766Z,28
2017-10-13T06:32:19.382Z,28
2017-10-13T06:33:20.273Z,32
2017-10-13T06:34:20.882Z,32
2017-10-13T06:35:21.493Z,28
2017-10-13T06:36:22.100Z,32
2017-10-13T06:37:22.718Z,32
2017-10-13T06:38:23.584Z,32
2017-10-13T06:39:24.193Z,32
2017-10-13T06:40:24.801Z,32
2017-10-13T06:41:25.443Z,36
2017-10-13T06:42:26.064Z,32
2017-10-13T06:43:26.967Z,36
2017-10-13T06:44:27.581Z,36
2017-10-13T06:45:28.222Z,32
2017-10-13T06:46:28.838Z,36
2017-10-13T06:47:29.446Z,36
2017-10-13T06:48:30.361Z,36
2017-10-13T06:49:30.968Z,36
2017-10-13T06:50:31.609Z,36
2017-10-13T06:51:32.249Z,36
2017-10-13T06:52:32.860Z,36
2017-10-13T06:53:33.721Z,36
2017-10-13T06:54:34.332Z,36
2017-10-13T06:55:34.942Z,36
2017-10-13T06:56:35.553Z,36
2017-10-13T06:57:36.172Z,36
2017-10-13T06:58:37.085Z,40
2017-10-13T06:59:37.697Z,36
2017-10-13T07:00:38.312Z,40
2017-10-13T07:01:38.919Z,36
2017-10-13T07:02:39.528Z,40
2017-10-13T07:03:40.394Z,40
2017-10-13T07:04:40.999Z,40
2017-10-13T07:05:41.609Z,40
2017-10-13T07:06:42.250Z,36
2017-10-13T07:07:42.861Z,40
2017-10-13T07:08:43.770Z,40
2017-10-13T07:09:44.386Z,40
2017-10-13T07:10:44.996Z,40
2017-10-13T07:11:45.608Z,44
2017-10-13T07:12:46.221Z,40
2017-10-13T07:13:47.163Z,44
2017-10-13T07:14:47.804Z,40
2017-10-13T07:15:48.422Z,44
2017-10-13T07:16:49.069Z,44
2017-10-13T07:17:49.675Z,44
2017-10-13T07:18:50.537Z,44
2017-10-13T07:19:51.146Z,44
2017-10-13T07:20:51.793Z,44
2017-10-13T07:21:52.400Z,44
2017-10-13T07:22:53.010Z,48
2017-10-13T07:23:53.921Z,48
2017-10-13T07:24:54.539Z,64
2017-10-13T07:25:55.146Z,76
2017-10-13T07:26:55.763Z,92
2017-10-13T07:27:56.380Z,100
2017-10-13T07:28:57.275Z,100
2017-10-13T07:29:57.894Z,104
2017-10-13T07:30:58.505Z,104
2017-10-13T07:31:59.124Z,104
2017-10-13T07:32:59.740Z,104
2017-10-13T07:34:00.599Z,108
2017-10-13T07:35:01.215Z,108
2017-10-13T07:36:01.829Z,112
2017-10-13T07:37:02.444Z,116
2017-10-13T07:38:03.060Z,116
2017-10-13T07:39:03.974Z,116
2017-10-13T07:40:04.588Z,120
2017-10-13T07:41:05.203Z,120
2017-10-13T07:42:05.823Z,120
2017-10-13T07:43:06.435Z,120
2017-10-13T07:44:07.299Z,120
2017-10-13T07:45:07.919Z,124
2017-10-13T07:46:08.530Z,124
2017-10-13T07:47:09.146Z,128
2017-10-13T07:48:09.762Z,128
2017-10-13T07:49:10.632Z,128
2017-10-13T07:50:11.247Z,136
2017-10-13T07:51:11.865Z,132
2017-10-13T07:52:12.479Z,132
2017-10-13T07:53:13.095Z,136
2017-10-13T07:54:13.964Z,140
2017-10-13T07:55:14.611Z,140
2017-10-13T07:56:15.224Z,140
2017-10-13T07:57:15.843Z,148
2017-10-13T07:58:16.486Z,144
2017-10-13T07:59:17.385Z,148
2017-10-13T08:00:17.998Z,148
2017-10-13T08:01:18.641Z,152
2017-10-13T08:02:19.260Z,156
2017-10-13T08:03:19.878Z,156
2017-10-13T08:04:20.738Z,152
2017-10-13T08:05:21.367Z,160
2017-10-13T08:06:22.010Z,160
2017-10-13T08:07:22.625Z,164
2017-10-13T08:08:23.245Z,164
2017-10-13T08:09:24.107Z,164
2017-10-13T08:10:24.722Z,168
2017-10-13T08:11:25.372Z,168
2017-10-13T08:12:25.988Z,172
2017-10-13T08:13:26.601Z,172
2017-10-13T08:14:27.547Z,176
2017-10-13T08:15:28.163Z,176
2017-10-13T08:16:28.779Z,180
2017-10-13T08:17:29.394Z,184
2017-10-13T08:18:30.011Z,188
2017-10-13T08:19:30.913Z,188
2017-10-13T08:20:31.525Z,192
2017-10-13T08:21:32.140Z,192
2017-10-13T08:22:32.766Z,196
2017-10-13T08:23:33.373Z,196
2017-10-13T08:24:34.287Z,200
2017-10-13T08:25:34.904Z,200
2017-10-13T08:26:35.549Z,200
2017-10-13T08:27:36.164Z,204
2017-10-13T08:28:36.780Z,208
2017-10-13T08:29:37.645Z,208
2017-10-13T08:30:38.275Z,212
2017-10-13T08:31:38.880Z,212
2017-10-13T08:32:39.497Z,216
2017-10-13T08:33:40.111Z,216
2017-10-13T08:34:41.012Z,220
2017-10-13T08:35:41.630Z,224
2017-10-13T08:36:42.243Z,228
2017-10-13T08:37:42.870Z,232
2017-10-13T08:38:43.506Z,232
2017-10-13T08:39:44.374Z,232
2017-10-13T08:40:44.998Z,236
2017-10-13T08:41:45.612Z,240
2017-10-13T08:42:46.259Z,240
2017-10-13T08:43:46.873Z,244
2017-10-13T08:44:47.788Z,252
2017-10-13T08:45:48.402Z,256
2017-10-13T08:46:49.021Z,256
2017-10-13T08:47:49.637Z,264
2017-10-13T08:48:50.253Z,264
2017-10-13T08:49:51.117Z,268
2017-10-13T08:50:51.732Z,272
2017-10-13T08:51:52.348Z,276
2017-10-13T08:52:52.994Z,284
2017-10-13T08:53:53.615Z,292
2017-10-13T08:54:54.531Z,292
2017-10-13T08:55:55.151Z,300
2017-10-13T08:56:55.765Z,304
2017-10-13T08:57:56.381Z,308
2017-10-13T08:58:57.000Z,312
2017-10-13T08:59:57.867Z,316
2017-10-13T09:00:58.485Z,324
2017-10-13T09:01:59.099Z,332
2017-10-13T09:02:59.745Z,336
2017-10-13T09:04:00.358Z,348
2017-10-13T09:05:01.275Z,356
2017-10-13T09:06:01.892Z,372
2017-10-13T09:07:02.508Z,384
2017-10-13T09:08:03.159Z,392
2017-10-13T09:09:03.775Z,408
2017-10-13T09:10:04.691Z,420
2017-10-13T09:11:05.347Z,432
2017-10-13T09:12:05.992Z,448
2017-10-13T09:13:06.608Z,460
2017-10-13T09:14:07.257Z,468
2017-10-13T09:15:08.129Z,476
2017-10-13T09:16:08.740Z,488
2017-10-13T09:17:09.356Z,504
2017-10-13T09:18:09.971Z,512
2017-10-13T09:19:10.592Z,520
2017-10-13T09:20:11.507Z,532
2017-10-13T09:21:12.129Z,540
2017-10-13T09:22:12.743Z,552
2017-10-13T09:23:13.359Z,556
2017-10-13T09:24:13.975Z,568
2017-10-13T09:25:14.893Z,576
2017-10-13T09:26:15.541Z,584
2017-10-13T09:27:16.160Z,596
2017-10-13T09:28:16.780Z,604
2017-10-13T09:29:17.428Z,616
2017-10-13T09:30:18.294Z,624
2017-10-13T09:31:18.912Z,636
2017-10-13T09:32:19.528Z,648
2017-10-13T09:33:20.177Z,652
2017-10-13T09:34:20.791Z,664
2017-10-13T09:35:21.658Z,676
2017-10-13T09:36:22.314Z,684
2017-10-13T09:37:22.931Z,692
2017-10-13T09:38:23.546Z,704
2017-10-13T09:39:24.164Z,712
2017-10-13T09:40:25.032Z,720
2017-10-13T09:41:25.686Z,728
2017-10-13T09:42:26.302Z,740
2017-10-13T09:43:26.924Z,748
2017-10-13T09:44:27.539Z,760
2017-10-13T09:45:28.462Z,772
2017-10-13T09:46:29.082Z,776
2017-10-13T09:47:29.729Z,788
2017-10-13T09:48:30.347Z,796
2017-10-13T09:49:30.965Z,804
2017-10-13T09:50:31.832Z,812
2017-10-13T09:51:32.450Z,824
2017-10-13T09:52:33.070Z,828
2017-10-13T09:53:33.691Z,836
2017-10-13T09:54:34.311Z,848
2017-10-13T09:55:35.178Z,856
2017-10-13T09:56:35.825Z,860
2017-10-13T09:57:36.454Z,864
2017-10-13T09:58:37.104Z,876
2017-10-13T09:59:37.723Z,884
2017-10-13T10:00:38.601Z,892
2017-10-13T10:01:39.219Z,900
2017-10-13T10:02:39.833Z,904
2017-10-13T10:03:40.452Z,916
2017-10-13T10:04:41.069Z,920
2017-10-13T10:05:41.944Z,928
2017-10-13T10:06:42.556Z,936
2017-10-13T10:07:43.175Z,940
2017-10-13T10:08:43.799Z,948
2017-10-13T10:09:44.422Z,952
2017-10-13T10:10:45.337Z,960
2017-10-13T10:11:45.960Z,968
2017-10-13T10:12:46.584Z,972
2017-10-13T10:13:47.200Z,980
2017-10-13T10:14:47.823Z,984
2017-10-13T10:15:48.738Z,992
2017-10-13T10:16:49.359Z,992
2017-10-13T10:17:49.979Z,996
2017-10-13T10:18:50.606Z,1004
2017-10-13T10:19:51.220Z,1008
2017-10-13T10:20:52.140Z,1012
2017-10-13T10:21:52.763Z,1016
2017-10-13T10:22:53.380Z,1020
2017-10-13T10:23:54.006Z,1024
2017-10-13T10:24:54.623Z,1028
2017-10-13T10:25:55.494Z,1032
2017-10-13T10:26:56.120Z,1040
2017-10-13T10:27:56.743Z,1044
2017-10-13T10:28:57.365Z,1044
2017-10-13T10:29:57.981Z,1048
2017-10-13T10:30:58.906Z,1052
2017-10-13T10:31:59.525Z,1060
2017-10-13T10:33:00.151Z,1060
2017-10-13T10:34:00.768Z,1068
2017-10-13T10:35:01.389Z,1068
2017-10-13T10:36:02.315Z,1072
2017-10-13T10:37:02.967Z,1072
2017-10-13T10:38:03.593Z,1076
2017-10-13T10:39:04.215Z,1080
2017-10-13T10:40:04.843Z,1084
2017-10-13T10:41:05.708Z,1084
2017-10-13T10:42:06.328Z,1088
2017-10-13T10:43:06.950Z,1096
2017-10-13T10:44:07.568Z,1096
2017-10-13T10:45:08.194Z,1104
2017-10-13T10:46:09.114Z,1104
2017-10-13T10:47:09.734Z,1108
2017-10-13T10:48:10.356Z,1108
2017-10-13T10:49:10.982Z,1112
2017-10-13T10:50:11.601Z,1112
2017-10-13T10:51:12.524Z,1120
2017-10-13T10:52:13.144Z,1116
2017-10-13T10:53:13.770Z,1124
2017-10-13T10:54:14.388Z,1124
2017-10-13T10:55:15.010Z,1128
2017-10-13T10:56:15.888Z,1128
2017-10-13T10:57:16.514Z,1132
2017-10-13T10:58:17.133Z,1132
2017-10-13T10:59:17.787Z,1140
2017-10-13T11:00:18.409Z,1140
2017-10-13T11:01:19.276Z,1144
2017-10-13T11:02:19.898Z,1144
2017-10-13T11:03:20.518Z,1148
2017-10-13T11:04:21.168Z,1152
2017-10-13T11:05:21.820Z,1152
2017-10-13T11:06:22.747Z,1156
2017-10-13T11:07:23.398Z,1160
2017-10-13T11:08:24.020Z,1160
2017-10-13T11:09:24.638Z,1160
2017-10-13T11:10:25.268Z,1160
2017-10-13T11:11:26.135Z,1164
2017-10-13T11:12:26.760Z,1164
2017-10-13T11:13:27.378Z,1164
2017-10-13T11:14:28.002Z,1168
2017-10-13T11:15:28.624Z,1168
2017-10-13T11:16:29.497Z,1168
2017-10-13T11:17:30.119Z,1172
2017-10-13T11:18:30.740Z,1172
2017-10-13T11:19:31.362Z,1168
2017-10-13T11:20:32.014Z,1172
2017-10-13T11:21:32.936Z,1172
2017-10-13T11:22:33.566Z,1176
2017-10-13T11:23:34.193Z,1176
2017-10-13T11:24:34.838Z,1176
2017-10-13T11:25:35.461Z,1180
2017-10-13T11:26:36.413Z,1180
2017-10-13T11:27:37.005Z,1180
2017-10-13T11:28:37.629Z,1184
2017-10-13T11:29:38.250Z,1180
2017-10-13T11:30:38.873Z,1180
2017-10-13T11:31:39.744Z,1180
2017-10-13T11:32:40.366Z,1184
2017-10-13T11:33:40.995Z,1184
2017-10-13T11:34:41.616Z,1188
2017-10-13T11:35:42.236Z,1184
2017-10-13T11:36:43.008Z,1184
2017-10-13T11:37:43.659Z,1188
2017-10-13T11:38:44.281Z,1184
2017-10-13T11:39:44.933Z,1188
2017-10-13T11:40:45.555Z,1184
2017-10-13T11:41:46.480Z,1188
2017-10-13T11:42:47.109Z,1188
2017-10-13T11:43:47.731Z,1188
2017-10-13T11:44:48.351Z,1192
2017-10-13T11:45:48.971Z,1192
2017-10-13T11:46:49.743Z,1192
2017-10-13T11:47:50.374Z,1196
2017-10-13T11:48:50.987Z,1196
2017-10-13T11:49:51.614Z,1200
2017-10-13T11:50:52.236Z,1196
2017-10-13T11:51:53.008Z,1196
2017-10-13T11:52:53.631Z,1200
2017-10-13T11:53:54.258Z,1200
2017-10-13T11:54:54.883Z,1204
2017-10-13T11:55:55.510Z,1204
2017-10-13T11:56:56.285Z,1204
2017-10-13T11:57:56.914Z,1208
2017-10-13T11:58:57.533Z,1208
2017-10-13T11:59:58.167Z,1208
2017-10-13T12:00:58.778Z,1208
2017-10-13T12:01:59.550Z,1212
2017-10-13T12:03:00.172Z,1212
2017-10-13T12:04:00.794Z,1212
2017-10-13T12:05:01.417Z,1216
2017-10-13T12:06:02.042Z,1212
2017-10-13T12:07:02.819Z,1220
2017-10-13T12:08:03.444Z,1220
2017-10-13T12:09:04.064Z,1220
2017-10-13T12:10:04.686Z,1224
2017-10-13T12:11:05.308Z,1228
2017-10-13T12:12:06.086Z,1224
2017-10-13T12:13:06.745Z,1228
2017-10-13T12:14:07.367Z,1232
2017-10-13T12:15:07.990Z,1232
2017-10-13T12:16:08.610Z,1236
2017-10-13T12:17:09.383Z,1236
2017-10-13T12:18:10.007Z,1232
2017-10-13T12:19:10.629Z,1236
2017-10-13T12:20:11.250Z,1236
2017-10-13T12:21:11.878Z,1240
2017-10-13T12:22:12.646Z,1240
2017-10-13T12:23:13.273Z,1244
2017-10-13T12:24:13.895Z,1248
2017-10-13T12:25:14.522Z,1244
2017-10-13T12:26:15.142Z,1248
2017-10-13T12:27:15.942Z,1248
2017-10-13T12:28:16.566Z,1252
2017-10-13T12:29:17.192Z,1252
2017-10-13T12:30:17.811Z,1256
2017-10-13T12:31:18.434Z,1260
2017-10-13T12:32:19.203Z,1268
2017-10-13T12:33:19.832Z,1264
2017-10-13T12:34:20.451Z,1268
2017-10-13T12:35:21.109Z,1268
2017-10-13T12:36:21.730Z,1272
2017-10-13T12:37:22.512Z,1272
2017-10-13T12:38:23.137Z,1268
2017-10-13T12:39:23.758Z,1268
2017-10-13T12:40:24.380Z,1276
2017-10-13T12:41:25.009Z,1276
2017-10-13T12:42:25.781Z,1280
2017-10-13T12:43:26.403Z,1276
2017-10-13T12:44:27.026Z,1280
2017-10-13T12:45:27.651Z,1280
2017-10-13T12:46:28.288Z,1284
2017-10-13T12:47:29.051Z,1280
2017-10-13T12:48:29.667Z,1284
2017-10-13T12:49:30.296Z,1284
2017-10-13T12:50:30.915Z,1288
2017-10-13T12:51:31.541Z,1288
2017-10-13T12:52:32.314Z,1292
2017-10-13T12:53:32.937Z,1292
2017-10-13T12:54:33.562Z,1292
2017-10-13T12:55:34.185Z,1288
2017-10-13T12:56:34.809Z,1296
2017-10-13T12:57:35.583Z,1296
2017-10-13T12:58:36.204Z,1296
2017-10-13T12:59:36.827Z,1300
2017-10-13T13:00:37.450Z,1300
2017-10-13T13:01:38.079Z,1300
2017-10-13T13:02:38.853Z,1304
2017-10-13T13:03:39.474Z,1300
2017-10-13T13:04:40.100Z,1304
2017-10-13T13:05:40.722Z,1308
2017-10-13T13:06:41.347Z,1304
2017-10-13T13:07:42.120Z,1312
2017-10-13T13:08:42.743Z,1308
2017-10-13T13:09:43.373Z,1308
2017-10-13T13:10:43.995Z,1308
2017-10-13T13:11:44.621Z,1312
2017-10-13T13:12:45.394Z,1312
2017-10-13T13:13:46.020Z,1312
2017-10-13T13:14:46.644Z,1316
2017-10-13T13:15:47.268Z,1312
2017-10-13T13:16:47.893Z,1316
2017-10-13T13:17:48.667Z,1316
2017-10-13T13:18:49.293Z,1316
2017-10-13T13:19:49.915Z,1316
2017-10-13T13:20:50.541Z,1316
2017-10-13T13:21:51.165Z,1320
2017-10-13T13:22:51.946Z,1320
2017-10-13T13:23:52.576Z,1320
2017-10-13T13:24:53.195Z,1320
2017-10-13T13:25:53.825Z,1320
2017-10-13T13:26:54.446Z,1316
2017-10-13T13:27:55.230Z,1320
2017-10-13T13:28:55.854Z,1320
2017-10-13T13:29:56.479Z,1324
2017-10-13T13:30:57.103Z,1320
2017-10-13T13:31:57.759Z,1320
2017-10-13T13:32:58.683Z,1320
2017-10-13T13:33:59.310Z,1316
2017-10-13T13:34:59.933Z,1320
2017-10-13T13:36:00.563Z,1324
2017-10-13T13:37:01.194Z,1320
2017-10-13T13:38:02.005Z,1320
2017-10-13T13:39:02.629Z,1324
2017-10-13T13:40:03.259Z,1320
2017-10-13T13:41:03.881Z,1316
2017-10-13T13:42:04.507Z,1312
2017-10-13T13:43:05.381Z,1316
2017-10-13T13:44:06.012Z,1320
2017-10-13T13:45:06.637Z,1316
2017-10-13T13:46:07.293Z,1316
2017-10-13T13:47:07.918Z,1312
2017-10-13T13:48:08.745Z,1312
2017-10-13T13:49:09.372Z,1312
2017-10-13T13:50:09.997Z,1312
2017-10-13T13:51:10.627Z,1316
2017-10-13T13:52:11.251Z,1312
2017-10-13T13:53:12.180Z,1312
2017-10-13T13:54:12.808Z,1308
2017-10-13T13:55:13.432Z,1312
2017-10-13T13:56:14.057Z,1312
2017-10-13T13:57:14.688Z,1312
2017-10-13T13:58:15.616Z,1308
2017-10-13T13:59:16.239Z,1308
2017-10-13T14:00:16.864Z,1308
2017-10-13T14:01:17.496Z,1308
2017-10-13T14:02:18.119Z,1308
2017-10-13T14:03:18.983Z,1304
2017-10-13T14:04:19.609Z,1304
2017-10-13T14:05:20.233Z,1300
2017-10-13T14:06:20.866Z,1304
2017-10-13T14:07:21.488Z,1300
2017-10-13T14:08:22.314Z,1300
2017-10-13T14:09:22.942Z,1300
2017-10-13T14:10:23.569Z,1292
2017-10-13T14:11:24.201Z,1296
2017-10-13T14:12:24.825Z,1292
2017-10-13T14:13:25.654Z,1292
2017-10-13T14:14:26.280Z,1292